createdAt,value
2022-09-16T00:07:23.616Z,86.00
2022-09-16T00:22:25.587Z,86.91
2022-09-16T00:37:27.596Z,86.56
2022-09-16T00:52:31.369Z,86.39
2022-09-16T01:07:48.768Z,86.39
2022-09-16T01:23:16.897Z,86.09
2022-09-16T01:39:01.759Z,85.67
2022-09-16T01:54:10.536Z,85.32
2022-09-16T02:09:21.883Z,85.57
2022-09-16T02:24:26.236Z,85.51
2022-09-16T02:39:32.269Z,85.99
2022-09-16T02:54:47.877Z,86.92
2022-09-16T03:09:50.815Z,87.25
2022-09-16T03:25:31.058Z,87.47
2022-09-16T03:40:34.050Z,88.09
2022-09-16T03:55:36.150Z,87.94
2022-09-16T04:10:39.487Z,88.30
2022-09-16T04:25:42.036Z,88.66
2022-09-16T04:40:43.983Z,88.45
2022-09-16T04:55:46.921Z,88.61
2022-09-16T05:10:48.861Z,88.69
2022-09-16T05:25:50.778Z,88.33
2022-09-16T05:40:52.717Z,87.72
2022-09-16T05:55:57.738Z,87.10
2022-09-16T06:11:04.926Z,86.18
2022-09-16T06:26:15.987Z,84.88
2022-09-16T06:41:19.727Z,83.72
2022-09-16T06:56:22.100Z,81.99
2022-09-16T07:11:24.557Z,79.38
2022-09-16T07:26:29.336Z,77.24
2022-09-16T07:41:34.847Z,75.20
2022-09-16T07:56:38.605Z,71.53
2022-09-16T08:11:40.518Z,69.01
2022-09-16T08:26:42.521Z,67.57
2022-09-16T08:42:15.437Z,65.19
2022-09-16T08:57:23.535Z,63.66
2022-09-16T09:12:36.028Z,63.72
2022-09-16T09:27:47.658Z,63.20
2022-09-16T09:42:57.996Z,63.83
2022-09-16T09:58:13.916Z,60.46
2022-09-16T10:13:17.175Z,56.04
2022-09-16T10:28:25.278Z,56.71
2022-09-16T10:43:29.619Z,56.19
2022-09-16T10:58:32.057Z,56.10
2022-09-16T11:14:04.857Z,54.96
2022-09-16T11:29:27.577Z,55.44
2022-09-16T11:44:35.605Z,54.86
2022-09-16T11:59:45.796Z,54.83
2022-09-16T12:15:16.616Z,52.65
2022-09-16T12:30:25.675Z,52.22
2022-09-16T12:45:54.923Z,53.17
2022-09-16T13:01:17.492Z,54.29
2022-09-16T13:16:56.459Z,55.60
2022-09-16T13:31:58.520Z,55.12
2022-09-16T13:47:09.308Z,54.98
2022-09-16T14:02:16.473Z,53.85
2022-09-16T14:17:25.390Z,54.72
2022-09-16T14:32:33.541Z,55.32
2022-09-16T14:47:51.286Z,54.87
2022-09-16T15:03:07.545Z,55.03
2022-09-16T15:18:20.038Z,54.86
2022-09-16T15:33:34.859Z,57.52
2022-09-16T15:48:44.438Z,59.20
2022-09-16T16:03:52.336Z,60.15
2022-09-16T16:18:54.895Z,62.19
2022-09-16T16:33:56.945Z,64.28
2022-09-16T16:48:58.916Z,65.92
2022-09-16T17:04:01.197Z,66.61
2022-09-16T17:19:03.542Z,67.84
2022-09-16T17:34:10.437Z,69.99
2022-09-16T17:49:18.562Z,71.87
2022-09-16T18:04:20.493Z,73.62
2022-09-16T18:19:22.418Z,75.21
2022-09-16T18:34:25.012Z,77.02
2022-09-16T18:49:29.221Z,77.19
2022-09-16T19:04:34.889Z,77.22
2022-09-16T19:19:37.910Z,77.69
2022-09-16T19:34:40.638Z,77.76
2022-09-16T19:49:44.418Z,77.84
2022-09-16T20:04:46.986Z,77.78
2022-09-16T20:19:48.845Z,78.07
2022-09-16T20:34:50.768Z,79.07
2022-09-16T20:49:54.769Z,79.03
2022-09-16T21:04:56.850Z,79.23
2022-09-16T21:19:58.718Z,79.14
2022-09-16T21:35:00.716Z,79.69
2022-09-16T21:50:04.577Z,79.62
2022-09-16T22:05:06.897Z,79.58
2022-09-16T22:20:10.175Z,79.90
2022-09-16T22:35:12.121Z,80.59
2022-09-16T22:50:14.117Z,80.83
2022-09-16T23:05:16.095Z,81.43
2022-09-16T23:20:17.977Z,82.07
2022-09-16T23:35:20.206Z,82.51
2022-09-16T23:50:22.277Z,82.52
